sensor_id;sensor_type;location;lat;lon;timestamp;temperature;humidity
20102;DHT22;10210;52.284;9.892;2024-02-21T00:00:52;11.20;99.90
20102;DHT22;10210;52.284;9.892;2024-02-21T00:03:18;11.20;99.90
20102;DHT22;10210;52.284;9.892;2024-02-21T00:05:45;11.20;99.90
20102;DHT22;10210;52.284;9.892;2024-02-21T00:08:10;11.20;99.90
20102;DHT22;10210;52.284;9.892;2024-02-21T00:10:36;11.20;99.90
20102;DHT22;10210;52.284;9.892;2024-02-21T00:13:02;11.20;99.90
20102;DHT22;10210;52.284;9.892;2024-02-21T00:15:28;11.20;99.90
20102;DHT22;10210;52.284;9.892;2024-02-21T00:17:54;11.20;99.90
20102;DHT22;10210;52.284;9.892;2024-02-21T00:20:20;11.20;99.90
20102;DHT22;10210;52.284;9.892;2024-02-21T00:22:46;11.20;99.90
20102;DHT22;10210;52.284;9.892;2024-02-21T00:25:11;11.20;99.90
20102;DHT22;10210;52.284;9.892;2024-02-21T00:27:37;11.20;99.90
20102;DHT22;10210;52.284;9.892;2024-02-21T00:30:04;11.20;99.90
20102;DHT22;10210;52.284;9.892;2024-02-21T00:32:31;11.20;99.90
20102;DHT22;10210;52.284;9.892;2024-02-21T00:34:59;11.20;99.90
20102;DHT22;10210;52.284;9.892;2024-02-21T00:37:24;11.20;99.90
20102;DHT22;10210;52.284;9.892;2024-02-21T00:39:50;11.20;99.90
20102;DHT22;10210;52.284;9.892;2024-02-21T00:42:16;11.20;99.90
20102;DHT22;10210;52.284;9.892;2024-02-21T00:44:41;11.20;99.90
20102;DHT22;10210;52.284;9.892;2024-02-21T00:47:07;11.20;99.90
20102;DHT22;10210;52.284;9.892;2024-02-21T00:49:32;11.20;99.90
20102;DHT22;10210;52.284;9.892;2024-02-21T00:51:58;11.20;99.90
20102;DHT22;10210;52.284;9.892;2024-02-21T00:54:24;11.20;99.90
20102;DHT22;10210;52.284;9.892;2024-02-21T00:56:49;11.20;99.90
20102;DHT22;10210;52.284;9.892;2024-02-21T00:59:15;11.20;99.90
20102;DHT22;10210;52.284;9.892;2024-02-21T01:01:40;11.20;99.90
20102;DHT22;10210;52.284;9.892;2024-02-21T01:04:09;11.20;99.90
20102;DHT22;10210;52.284;9.892;2024-02-21T01:06:35;11.20;99.90
20102;DHT22;10210;52.284;9.892;2024-02-21T01:09:00;11.20;99.90
20102;DHT22;10210;52.284;9.892;2024-02-21T01:11:26;11.20;99.90
20102;DHT22;10210;52.284;9.892;2024-02-21T01:13:52;11.20;99.90
20102;DHT22;10210;52.284;9.892;2024-02-21T01:16:18;11.20;99.90
20102;DHT22;10210;52.284;9.892;2024-02-21T01:18:44;11.20;99.90
20102;DHT22;10210;52.284;9.892;2024-02-21T01:21:10;11.20;99.90
20102;DHT22;10210;52.284;9.892;2024-02-21T01:23:36;11.20;99.90
20102;DHT22;10210;52.284;9.892;2024-02-21T01:26:03;11.20;99.90
20102;DHT22;10210;52.284;9.892;2024-02-21T01:28:29;11.20;99.90
20102;DHT22;10210;52.284;9.892;2024-02-21T01:30:56;11.20;99.90
20102;DHT22;10210;52.284;9.892;2024-02-21T01:33:22;11.20;99.90
20102;DHT22;10210;52.284;9.892;2024-02-21T01:35:47;11.20;99.90
20102;DHT22;10210;52.284;9.892;2024-02-21T01:38:14;11.20;99.90
20102;DHT22;10210;52.284;9.892;2024-02-21T01:40:40;11.20;99.90
20102;DHT22;10210;52.284;9.892;2024-02-21T01:43:15;11.20;99.90
20102;DHT22;10210;52.284;9.892;2024-02-21T01:45:43;11.20;99.90
20102;DHT22;10210;52.284;9.892;2024-02-21T01:48:18;11.20;99.90
20102;DHT22;10210;52.284;9.892;2024-02-21T01:50:45;11.20;99.90
20102;DHT22;10210;52.284;9.892;2024-02-21T01:53:13;11.20;99.90
20102;DHT22;10210;52.284;9.892;2024-02-21T01:55:45;11.20;99.90
20102;DHT22;10210;52.284;9.892;2024-02-21T01:58:13;11.20;99.90
20102;DHT22;10210;52.284;9.892;2024-02-21T02:00:44;11.20;99.90
20102;DHT22;10210;52.284;9.892;2024-02-21T02:03:11;11.20;99.90
20102;DHT22;10210;52.284;9.892;2024-02-21T02:05:48;11.20;99.90
20102;DHT22;10210;52.284;9.892;2024-02-21T02:08:19;11.20;99.90
20102;DHT22;10210;52.284;9.892;2024-02-21T02:10:45;11.20;99.90
20102;DHT22;10210;52.284;9.892;2024-02-21T02:13:11;11.20;99.90
20102;DHT22;10210;52.284;9.892;2024-02-21T02:15:38;11.20;99.90
20102;DHT22;10210;52.284;9.892;2024-02-21T02:18:07;11.20;99.90
20102;DHT22;10210;52.284;9.892;2024-02-21T02:20:33;11.20;99.90
20102;DHT22;10210;52.284;9.892;2024-02-21T02:23:00;11.20;99.90
20102;DHT22;10210;52.284;9.892;2024-02-21T02:25:32;11.20;99.90
20102;DHT22;10210;52.284;9.892;2024-02-21T02:27:57;11.20;99.90
20102;DHT22;10210;52.284;9.892;2024-02-21T02:30:23;11.20;99.90
20102;DHT22;10210;52.284;9.892;2024-02-21T02:32:48;11.20;99.90
20102;DHT22;10210;52.284;9.892;2024-02-21T02:35:14;11.20;99.90
20102;DHT22;10210;52.284;9.892;2024-02-21T02:37:46;11.20;99.90
20102;DHT22;10210;52.284;9.892;2024-02-21T02:40:13;11.20;99.90
20102;DHT22;10210;52.284;9.892;2024-02-21T02:42:39;11.20;99.90
20102;DHT22;10210;52.284;9.892;2024-02-21T02:45:05;11.20;99.90
20102;DHT22;10210;52.284;9.892;2024-02-21T02:47:31;11.20;99.90
20102;DHT22;10210;52.284;9.892;2024-02-21T02:49:57;11.20;99.90
20102;DHT22;10210;52.284;9.892;2024-02-21T02:52:22;11.20;99.90
20102;DHT22;10210;52.284;9.892;2024-02-21T02:54:48;11.20;99.90
20102;DHT22;10210;52.284;9.892;2024-02-21T02:57:17;11.20;99.90
20102;DHT22;10210;52.284;9.892;2024-02-21T02:59:48;11.20;99.90
20102;DHT22;10210;52.284;9.892;2024-02-21T03:02:14;11.20;99.90
20102;DHT22;10210;52.284;9.892;2024-02-21T03:04:40;11.20;99.90
20102;DHT22;10210;52.284;9.892;2024-02-21T03:07:06;11.20;99.90
20102;DHT22;10210;52.284;9.892;2024-02-21T03:09:32;11.20;99.90
20102;DHT22;10210;52.284;9.892;2024-02-21T03:11:57;11.20;99.90
20102;DHT22;10210;52.284;9.892;2024-02-21T03:14:33;11.20;99.90
20102;DHT22;10210;52.284;9.892;2024-02-21T03:16:59;11.20;99.90
20102;DHT22;10210;52.284;9.892;2024-02-21T03:19:25;11.20;99.90
20102;DHT22;10210;52.284;9.892;2024-02-21T03:21:52;11.30;99.90
20102;DHT22;10210;52.284;9.892;2024-02-21T03:24:19;11.20;99.90
20102;DHT22;10210;52.284;9.892;2024-02-21T03:26:45;11.20;99.90
20102;DHT22;10210;52.284;9.892;2024-02-21T03:29:17;11.20;99.90
20102;DHT22;10210;52.284;9.892;2024-02-21T03:31:43;11.20;99.90
20102;DHT22;10210;52.284;9.892;2024-02-21T03:34:11;11.20;99.90
20102;DHT22;10210;52.284;9.892;2024-02-21T03:36:37;11.20;99.90
20102;DHT22;10210;52.284;9.892;2024-02-21T03:39:03;11.20;99.90
20102;DHT22;10210;52.284;9.892;2024-02-21T03:41:29;11.30;99.90
20102;DHT22;10210;52.284;9.892;2024-02-21T03:43:54;11.20;99.90
20102;DHT22;10210;52.284;9.892;2024-02-21T03:46:20;11.20;99.90
20102;DHT22;10210;52.284;9.892;2024-02-21T03:48:46;11.20;99.90
20102;DHT22;10210;52.284;9.892;2024-02-21T03:51:11;11.20;99.90
20102;DHT22;10210;52.284;9.892;2024-02-21T03:53:37;11.20;99.90
20102;DHT22;10210;52.284;9.892;2024-02-21T03:56:03;11.20;99.90
20102;DHT22;10210;52.284;9.892;2024-02-21T03:58:30;11.20;99.90
20102;DHT22;10210;52.284;9.892;2024-02-21T04:00:56;11.20;99.90
20102;DHT22;10210;52.284;9.892;2024-02-21T04:03:22;11.20;99.90
20102;DHT22;10210;52.284;9.892;2024-02-21T04:05:47;11.20;99.90
20102;DHT22;10210;52.284;9.892;2024-02-21T04:08:14;11.20;99.90
20102;DHT22;10210;52.284;9.892;2024-02-21T04:10:40;11.20;99.90
20102;DHT22;10210;52.284;9.892;2024-02-21T04:13:06;11.20;99.90
20102;DHT22;10210;52.284;9.892;2024-02-21T04:15:32;11.20;99.90
20102;DHT22;10210;52.284;9.892;2024-02-21T04:17:58;11.20;99.90
20102;DHT22;10210;52.284;9.892;2024-02-21T04:20:23;11.20;99.90
20102;DHT22;10210;52.284;9.892;2024-02-21T04:22:49;11.30;99.90
20102;DHT22;10210;52.284;9.892;2024-02-21T04:25:15;11.30;99.90
20102;DHT22;10210;52.284;9.892;2024-02-21T04:27:41;11.30;99.90
20102;DHT22;10210;52.284;9.892;2024-02-21T04:30:07;11.30;99.90
20102;DHT22;10210;52.284;9.892;2024-02-21T04:32:35;11.30;99.90
20102;DHT22;10210;52.284;9.892;2024-02-21T04:35:00;11.30;99.90
20102;DHT22;10210;52.284;9.892;2024-02-21T04:37:26;11.30;99.90
20102;DHT22;10210;52.284;9.892;2024-02-21T04:39:52;11.30;99.90
20102;DHT22;10210;52.284;9.892;2024-02-21T04:42:18;11.30;99.90
20102;DHT22;10210;52.284;9.892;2024-02-21T04:44:43;11.30;99.90
20102;DHT22;10210;52.284;9.892;2024-02-21T04:47:09;11.30;99.90
20102;DHT22;10210;52.284;9.892;2024-02-21T04:49:35;11.30;99.90
20102;DHT22;10210;52.284;9.892;2024-02-21T04:52:01;11.30;99.90
20102;DHT22;10210;52.284;9.892;2024-02-21T04:54:26;11.30;99.90
20102;DHT22;10210;52.284;9.892;2024-02-21T04:56:52;11.30;99.90
20102;DHT22;10210;52.284;9.892;2024-02-21T04:59:18;11.30;99.90
20102;DHT22;10210;52.284;9.892;2024-02-21T05:01:44;11.30;99.90
20102;DHT22;10210;52.284;9.892;2024-02-21T05:04:09;11.30;99.90
20102;DHT22;10210;52.284;9.892;2024-02-21T05:06:39;11.30;99.90
20102;DHT22;10210;52.284;9.892;2024-02-21T05:09:09;11.30;99.90
20102;DHT22;10210;52.284;9.892;2024-02-21T05:11:36;11.30;99.90
20102;DHT22;10210;52.284;9.892;2024-02-21T05:14:02;11.30;99.90
20102;DHT22;10210;52.284;9.892;2024-02-21T05:16:29;11.30;99.90
20102;DHT22;10210;52.284;9.892;2024-02-21T05:18:54;11.30;99.90
20102;DHT22;10210;52.284;9.892;2024-02-21T05:21:22;11.30;99.90
20102;DHT22;10210;52.284;9.892;2024-02-21T05:23:49;11.30;99.90
20102;DHT22;10210;52.284;9.892;2024-02-21T05:26:22;11.30;99.90
20102;DHT22;10210;52.284;9.892;2024-02-21T05:28:51;11.30;99.90
20102;DHT22;10210;52.284;9.892;2024-02-21T05:31:20;11.30;99.90
20102;DHT22;10210;52.284;9.892;2024-02-21T05:33:48;11.30;99.90
20102;DHT22;10210;52.284;9.892;2024-02-21T05:36:14;11.30;99.90
20102;DHT22;10210;52.284;9.892;2024-02-21T05:38:40;11.30;99.90
20102;DHT22;10210;52.284;9.892;2024-02-21T05:41:05;11.30;99.90
20102;DHT22;10210;52.284;9.892;2024-02-21T05:43:31;11.30;99.90
20102;DHT22;10210;52.284;9.892;2024-02-21T05:45:57;11.30;99.90
20102;DHT22;10210;52.284;9.892;2024-02-21T05:48:23;11.30;99.90
20102;DHT22;10210;52.284;9.892;2024-02-21T05:50:49;11.30;99.90
20102;DHT22;10210;52.284;9.892;2024-02-21T05:53:15;11.30;99.90
20102;DHT22;10210;52.284;9.892;2024-02-21T05:55:41;11.30;99.90
20102;DHT22;10210;52.284;9.892;2024-02-21T05:58:07;11.30;99.90
20102;DHT22;10210;52.284;9.892;2024-02-21T06:00:37;11.30;99.90
20102;DHT22;10210;52.284;9.892;2024-02-21T06:03:03;11.30;99.90
20102;DHT22;10210;52.284;9.892;2024-02-21T06:05:29;11.30;99.90
20102;DHT22;10210;52.284;9.892;2024-02-21T06:07:54;11.30;99.90
20102;DHT22;10210;52.284;9.892;2024-02-21T06:10:20;11.40;99.90
20102;DHT22;10210;52.284;9.892;2024-02-21T06:12:46;11.30;99.90
20102;DHT22;10210;52.284;9.892;2024-02-21T06:15:12;11.30;99.90
20102;DHT22;10210;52.284;9.892;2024-02-21T06:17:37;11.30;99.90
20102;DHT22;10210;52.284;9.892;2024-02-21T06:20:03;11.30;99.90
20102;DHT22;10210;52.284;9.892;2024-02-21T06:22:30;11.30;99.90
20102;DHT22;10210;52.284;9.892;2024-02-21T06:24:56;11.30;99.90
20102;DHT22;10210;52.284;9.892;2024-02-21T06:27:21;11.30;99.90
20102;DHT22;10210;52.284;9.892;2024-02-21T06:29:47;11.30;99.90
20102;DHT22;10210;52.284;9.892;2024-02-21T06:32:13;11.30;99.90
20102;DHT22;10210;52.284;9.892;2024-02-21T06:34:39;11.30;99.90
20102;DHT22;10210;52.284;9.892;2024-02-21T06:37:05;11.30;99.90
20102;DHT22;10210;52.284;9.892;2024-02-21T06:39:31;11.30;99.90
20102;DHT22;10210;52.284;9.892;2024-02-21T06:41:56;11.30;99.90
20102;DHT22;10210;52.284;9.892;2024-02-21T06:44:22;11.30;99.90
20102;DHT22;10210;52.284;9.892;2024-02-21T06:46:48;11.30;99.90
20102;DHT22;10210;52.284;9.892;2024-02-21T06:49:14;11.30;99.90
20102;DHT22;10210;52.284;9.892;2024-02-21T06:51:44;11.30;99.90
20102;DHT22;10210;52.284;9.892;2024-02-21T06:54:10;11.40;99.90
20102;DHT22;10210;52.284;9.892;2024-02-21T06:56:37;11.40;99.90
20102;DHT22;10210;52.284;9.892;2024-02-21T06:59:03;11.30;99.90
20102;DHT22;10210;52.284;9.892;2024-02-21T07:01:29;11.30;99.90
20102;DHT22;10210;52.284;9.892;2024-02-21T07:03:55;11.30;99.90
20102;DHT22;10210;52.284;9.892;2024-02-21T07:06:22;11.30;99.90
20102;DHT22;10210;52.284;9.892;2024-02-21T07:08:48;11.30;99.90
20102;DHT22;10210;52.284;9.892;2024-02-21T07:11:14;11.30;99.90
20102;DHT22;10210;52.284;9.892;2024-02-21T07:13:40;11.30;99.90
20102;DHT22;10210;52.284;9.892;2024-02-21T07:16:06;11.30;99.90
20102;DHT22;10210;52.284;9.892;2024-02-21T07:18:33;11.30;99.90
20102;DHT22;10210;52.284;9.892;2024-02-21T07:20:59;11.30;99.90
20102;DHT22;10210;52.284;9.892;2024-02-21T07:23:25;11.30;99.90
20102;DHT22;10210;52.284;9.892;2024-02-21T07:25:51;11.30;99.90
20102;DHT22;10210;52.284;9.892;2024-02-21T07:28:16;11.30;99.90
20102;DHT22;10210;52.284;9.892;2024-02-21T07:30:42;11.30;99.90
20102;DHT22;10210;52.284;9.892;2024-02-21T07:33:09;11.30;99.90
20102;DHT22;10210;52.284;9.892;2024-02-21T07:35:34;11.40;99.90
20102;DHT22;10210;52.284;9.892;2024-02-21T07:38:07;11.30;99.90
20102;DHT22;10210;52.284;9.892;2024-02-21T07:40:37;11.30;99.90
20102;DHT22;10210;52.284;9.892;2024-02-21T07:43:03;11.40;99.90
20102;DHT22;10210;52.284;9.892;2024-02-21T07:45:29;11.30;99.90
20102;DHT22;10210;52.284;9.892;2024-02-21T07:47:54;11.30;99.90
20102;DHT22;10210;52.284;9.892;2024-02-21T07:50:20;11.40;99.90
20102;DHT22;10210;52.284;9.892;2024-02-21T07:52:45;11.40;99.90
20102;DHT22;10210;52.284;9.892;2024-02-21T07:55:11;11.40;99.90
20102;DHT22;10210;52.284;9.892;2024-02-21T07:57:37;11.40;99.90
20102;DHT22;10210;52.284;9.892;2024-02-21T08:00:03;11.50;99.90
20102;DHT22;10210;52.284;9.892;2024-02-21T08:02:30;11.50;99.90
20102;DHT22;10210;52.284;9.892;2024-02-21T08:04:55;11.50;99.90
20102;DHT22;10210;52.284;9.892;2024-02-21T08:07:21;11.50;99.90
20102;DHT22;10210;52.284;9.892;2024-02-21T08:09:47;11.50;99.90
20102;DHT22;10210;52.284;9.892;2024-02-21T08:12:12;11.50;99.90
20102;DHT22;10210;52.284;9.892;2024-02-21T08:14:38;11.50;99.90
20102;DHT22;10210;52.284;9.892;2024-02-21T08:17:03;11.50;99.90
20102;DHT22;10210;52.284;9.892;2024-02-21T08:19:29;11.60;99.90
20102;DHT22;10210;52.284;9.892;2024-02-21T08:21:55;11.60;99.90
20102;DHT22;10210;52.284;9.892;2024-02-21T08:24:21;11.60;99.90
20102;DHT22;10210;52.284;9.892;2024-02-21T08:26:48;11.60;99.90
20102;DHT22;10210;52.284;9.892;2024-02-21T08:29:14;11.60;99.90
20102;DHT22;10210;52.284;9.892;2024-02-21T08:31:39;11.60;99.90
20102;DHT22;10210;52.284;9.892;2024-02-21T08:34:05;11.60;99.90
20102;DHT22;10210;52.284;9.892;2024-02-21T08:36:32;11.60;99.90
20102;DHT22;10210;52.284;9.892;2024-02-21T08:38:58;11.60;99.90
20102;DHT22;10210;52.284;9.892;2024-02-21T08:41:25;11.60;99.90
20102;DHT22;10210;52.284;9.892;2024-02-21T08:43:52;11.60;99.90
20102;DHT22;10210;52.284;9.892;2024-02-21T08:46:19;11.60;99.90
20102;DHT22;10210;52.284;9.892;2024-02-21T08:48:46;11.70;99.90
20102;DHT22;10210;52.284;9.892;2024-02-21T08:51:13;11.70;99.90
20102;DHT22;10210;52.284;9.892;2024-02-21T08:53:39;11.60;99.90
20102;DHT22;10210;52.284;9.892;2024-02-21T08:56:06;11.60;99.90
20102;DHT22;10210;52.284;9.892;2024-02-21T08:58:33;11.60;99.90
20102;DHT22;10210;52.284;9.892;2024-02-21T09:01:00;11.70;99.90
20102;DHT22;10210;52.284;9.892;2024-02-21T09:03:26;11.70;99.90
20102;DHT22;10210;52.284;9.892;2024-02-21T09:05:52;11.70;99.90
20102;DHT22;10210;52.284;9.892;2024-02-21T09:08:18;11.70;99.90
20102;DHT22;10210;52.284;9.892;2024-02-21T09:10:44;11.70;99.90
20102;DHT22;10210;52.284;9.892;2024-02-21T09:13:10;11.80;99.90
20102;DHT22;10210;52.284;9.892;2024-02-21T09:15:35;11.80;99.90
20102;DHT22;10210;52.284;9.892;2024-02-21T09:18:01;11.90;99.90
20102;DHT22;10210;52.284;9.892;2024-02-21T09:20:26;11.90;99.90
20102;DHT22;10210;52.284;9.892;2024-02-21T09:22:52;11.90;99.90
20102;DHT22;10210;52.284;9.892;2024-02-21T09:25:18;11.90;99.90
20102;DHT22;10210;52.284;9.892;2024-02-21T09:27:45;11.90;99.90
20102;DHT22;10210;52.284;9.892;2024-02-21T09:30:11;12.00;99.90
20102;DHT22;10210;52.284;9.892;2024-02-21T09:32:37;12.00;99.90
20102;DHT22;10210;52.284;9.892;2024-02-21T09:35:04;12.00;99.90
20102;DHT22;10210;52.284;9.892;2024-02-21T09:37:33;12.10;99.90
20102;DHT22;10210;52.284;9.892;2024-02-21T09:39:59;12.10;99.90
20102;DHT22;10210;52.284;9.892;2024-02-21T09:42:38;12.20;99.90
20102;DHT22;10210;52.284;9.892;2024-02-21T09:45:20;12.20;99.90
20102;DHT22;10210;52.284;9.892;2024-02-21T09:50:47;12.30;99.90
20102;DHT22;10210;52.284;9.892;2024-02-21T09:53:15;12.30;99.90
20102;DHT22;10210;52.284;9.892;2024-02-21T09:55:43;12.40;99.90
20102;DHT22;10210;52.284;9.892;2024-02-21T09:58:09;12.40;99.90
20102;DHT22;10210;52.284;9.892;2024-02-21T10:00:36;12.50;99.90
20102;DHT22;10210;52.284;9.892;2024-02-21T10:03:03;12.50;99.90
20102;DHT22;10210;52.284;9.892;2024-02-21T10:05:35;12.50;99.90
20102;DHT22;10210;52.284;9.892;2024-02-21T10:08:02;12.50;99.90
20102;DHT22;10210;52.284;9.892;2024-02-21T10:10:42;12.50;99.90
20102;DHT22;10210;52.284;9.892;2024-02-21T10:13:10;12.60;99.90
20102;DHT22;10210;52.284;9.892;2024-02-21T10:15:36;12.60;99.90
20102;DHT22;10210;52.284;9.892;2024-02-21T10:18:02;12.60;99.90
20102;DHT22;10210;52.284;9.892;2024-02-21T10:20:32;12.60;99.90
20102;DHT22;10210;52.284;9.892;2024-02-21T10:23:03;12.70;99.90
20102;DHT22;10210;52.284;9.892;2024-02-21T10:25:37;12.70;99.90
20102;DHT22;10210;52.284;9.892;2024-02-21T10:28:07;12.70;99.90
20102;DHT22;10210;52.284;9.892;2024-02-21T10:30:33;12.70;99.90
20102;DHT22;10210;52.284;9.892;2024-02-21T10:32:58;12.70;99.90
20102;DHT22;10210;52.284;9.892;2024-02-21T10:35:31;12.80;99.90
20102;DHT22;10210;52.284;9.892;2024-02-21T10:37:59;12.80;99.90
20102;DHT22;10210;52.284;9.892;2024-02-21T10:40:27;12.80;99.90
20102;DHT22;10210;52.284;9.892;2024-02-21T10:42:57;12.80;99.90
20102;DHT22;10210;52.284;9.892;2024-02-21T10:45:35;12.80;99.90
20102;DHT22;10210;52.284;9.892;2024-02-21T10:48:15;12.90;99.90
20102;DHT22;10210;52.284;9.892;2024-02-21T10:50:55;12.90;99.90
20102;DHT22;10210;52.284;9.892;2024-02-21T10:53:38;13.00;99.90
20102;DHT22;10210;52.284;9.892;2024-02-21T10:59:01;12.90;99.90
20102;DHT22;10210;52.284;9.892;2024-02-21T11:01:29;13.00;99.90
20102;DHT22;10210;52.284;9.892;2024-02-21T11:03:59;13.00;99.90
20102;DHT22;10210;52.284;9.892;2024-02-21T11:06:35;13.00;99.90
20102;DHT22;10210;52.284;9.892;2024-02-21T11:09:06;13.00;99.90
20102;DHT22;10210;52.284;9.892;2024-02-21T11:11:34;13.10;99.90
20102;DHT22;10210;52.284;9.892;2024-02-21T11:14:20;13.00;99.90
20102;DHT22;10210;52.284;9.892;2024-02-21T11:16:47;13.10;99.90
20102;DHT22;10210;52.284;9.892;2024-02-21T11:19:21;13.10;99.90
20102;DHT22;10210;52.284;9.892;2024-02-21T11:21:48;13.20;99.90
20102;DHT22;10210;52.284;9.892;2024-02-21T11:24:14;13.20;99.90
20102;DHT22;10210;52.284;9.892;2024-02-21T11:27:18;13.20;99.90
20102;DHT22;10210;52.284;9.892;2024-02-21T11:29:54;13.30;99.90
20102;DHT22;10210;52.284;9.892;2024-02-21T11:32:21;13.30;99.90
20102;DHT22;10210;52.284;9.892;2024-02-21T11:34:57;13.30;99.90
20102;DHT22;10210;52.284;9.892;2024-02-21T11:37:32;13.40;99.90
20102;DHT22;10210;52.284;9.892;2024-02-21T11:40:03;13.40;99.90
20102;DHT22;10210;52.284;9.892;2024-02-21T11:42:30;13.50;99.90
20102;DHT22;10210;52.284;9.892;2024-02-21T11:44:56;13.50;99.90
20102;DHT22;10210;52.284;9.892;2024-02-21T11:47:23;13.50;99.90
20102;DHT22;10210;52.284;9.892;2024-02-21T11:49:49;13.60;99.90
20102;DHT22;10210;52.284;9.892;2024-02-21T11:52:21;13.60;99.90
20102;DHT22;10210;52.284;9.892;2024-02-21T11:54:50;13.60;99.90
20102;DHT22;10210;52.284;9.892;2024-02-21T11:57:21;13.60;99.90
20102;DHT22;10210;52.284;9.892;2024-02-21T11:59:47;13.60;99.90
20102;DHT22;10210;52.284;9.892;2024-02-21T12:02:14;13.70;99.90
20102;DHT22;10210;52.284;9.892;2024-02-21T12:04:40;13.70;99.90
20102;DHT22;10210;52.284;9.892;2024-02-21T12:07:07;13.70;99.90
20102;DHT22;10210;52.284;9.892;2024-02-21T12:09:34;13.70;99.90
20102;DHT22;10210;52.284;9.892;2024-02-21T12:12:01;13.70;99.90
20102;DHT22;10210;52.284;9.892;2024-02-21T12:14:32;13.70;99.90
20102;DHT22;10210;52.284;9.892;2024-02-21T12:17:00;13.70;99.90
20102;DHT22;10210;52.284;9.892;2024-02-21T12:19:29;13.70;99.90
20102;DHT22;10210;52.284;9.892;2024-02-21T12:21:55;13.70;99.90
20102;DHT22;10210;52.284;9.892;2024-02-21T12:24:24;13.70;99.90
20102;DHT22;10210;52.284;9.892;2024-02-21T12:26:51;13.70;99.90
20102;DHT22;10210;52.284;9.892;2024-02-21T12:29:21;13.70;99.90
20102;DHT22;10210;52.284;9.892;2024-02-21T12:31:48;13.80;99.90
20102;DHT22;10210;52.284;9.892;2024-02-21T12:34:15;13.80;99.90
20102;DHT22;10210;52.284;9.892;2024-02-21T12:36:42;13.80;99.90
20102;DHT22;10210;52.284;9.892;2024-02-21T12:39:15;13.80;99.90
20102;DHT22;10210;52.284;9.892;2024-02-21T12:41:42;13.80;99.90
20102;DHT22;10210;52.284;9.892;2024-02-21T12:44:10;13.80;99.90
20102;DHT22;10210;52.284;9.892;2024-02-21T12:46:37;13.80;99.90
20102;DHT22;10210;52.284;9.892;2024-02-21T12:49:03;13.80;99.90
20102;DHT22;10210;52.284;9.892;2024-02-21T12:51:31;13.80;99.90
20102;DHT22;10210;52.284;9.892;2024-02-21T12:53:57;13.80;99.90
20102;DHT22;10210;52.284;9.892;2024-02-21T12:56:23;13.80;99.90
20102;DHT22;10210;52.284;9.892;2024-02-21T12:58:50;13.80;99.90
20102;DHT22;10210;52.284;9.892;2024-02-21T13:01:16;13.80;99.90
20102;DHT22;10210;52.284;9.892;2024-02-21T13:03:42;13.80;99.90
20102;DHT22;10210;52.284;9.892;2024-02-21T13:06:07;13.80;99.90
20102;DHT22;10210;52.284;9.892;2024-02-21T13:08:36;13.80;99.90
20102;DHT22;10210;52.284;9.892;2024-02-21T13:11:03;13.90;99.90
20102;DHT22;10210;52.284;9.892;2024-02-21T13:13:29;13.90;99.90
20102;DHT22;10210;52.284;9.892;2024-02-21T13:15:56;13.80;99.90
20102;DHT22;10210;52.284;9.892;2024-02-21T13:18:25;13.90;99.90
20102;DHT22;10210;52.284;9.892;2024-02-21T13:20:51;13.80;99.90
20102;DHT22;10210;52.284;9.892;2024-02-21T13:23:16;13.80;99.90
20102;DHT22;10210;52.284;9.892;2024-02-21T13:25:42;13.80;99.90
20102;DHT22;10210;52.284;9.892;2024-02-21T13:28:09;13.80;99.90
20102;DHT22;10210;52.284;9.892;2024-02-21T13:30:35;13.80;99.90
20102;DHT22;10210;52.284;9.892;2024-02-21T13:33:01;13.80;99.90
20102;DHT22;10210;52.284;9.892;2024-02-21T13:35:28;13.80;99.90
20102;DHT22;10210;52.284;9.892;2024-02-21T13:37:55;13.90;99.90
20102;DHT22;10210;52.284;9.892;2024-02-21T13:40:21;13.90;99.90
20102;DHT22;10210;52.284;9.892;2024-02-21T13:42:46;13.90;99.90
20102;DHT22;10210;52.284;9.892;2024-02-21T13:45:13;13.90;99.90
20102;DHT22;10210;52.284;9.892;2024-02-21T13:47:40;14.00;99.90
20102;DHT22;10210;52.284;9.892;2024-02-21T13:50:06;14.00;99.90
20102;DHT22;10210;52.284;9.892;2024-02-21T13:52:36;14.00;99.90
20102;DHT22;10210;52.284;9.892;2024-02-21T13:55:02;14.00;99.90
20102;DHT22;10210;52.284;9.892;2024-02-21T13:57:28;14.00;99.90
20102;DHT22;10210;52.284;9.892;2024-02-21T13:59:54;14.00;99.90
20102;DHT22;10210;52.284;9.892;2024-02-21T14:02:20;14.00;99.90
20102;DHT22;10210;52.284;9.892;2024-02-21T14:04:46;14.00;99.90
20102;DHT22;10210;52.284;9.892;2024-02-21T14:07:12;13.90;99.90
20102;DHT22;10210;52.284;9.892;2024-02-21T14:09:38;13.90;99.90
20102;DHT22;10210;52.284;9.892;2024-02-21T14:12:04;13.90;99.90
20102;DHT22;10210;52.284;9.892;2024-02-21T14:14:36;13.90;99.90
20102;DHT22;10210;52.284;9.892;2024-02-21T14:17:03;13.90;99.90
20102;DHT22;10210;52.284;9.892;2024-02-21T14:19:29;13.90;99.90
20102;DHT22;10210;52.284;9.892;2024-02-21T14:21:56;13.80;99.90
20102;DHT22;10210;52.284;9.892;2024-02-21T14:24:22;13.80;99.90
20102;DHT22;10210;52.284;9.892;2024-02-21T14:26:49;13.90;99.90
20102;DHT22;10210;52.284;9.892;2024-02-21T14:29:15;13.80;99.90
20102;DHT22;10210;52.284;9.892;2024-02-21T14:31:41;13.80;99.90
20102;DHT22;10210;52.284;9.892;2024-02-21T14:34:06;13.70;99.90
20102;DHT22;10210;52.284;9.892;2024-02-21T14:36:33;13.70;99.90
20102;DHT22;10210;52.284;9.892;2024-02-21T14:38:59;13.60;99.90
20102;DHT22;10210;52.284;9.892;2024-02-21T14:41:25;13.60;99.90
20102;DHT22;10210;52.284;9.892;2024-02-21T14:43:50;13.60;99.90
20102;DHT22;10210;52.284;9.892;2024-02-21T14:46:17;13.60;99.90
20102;DHT22;10210;52.284;9.892;2024-02-21T14:48:43;13.60;99.90
20102;DHT22;10210;52.284;9.892;2024-02-21T14:51:10;13.50;99.90
20102;DHT22;10210;52.284;9.892;2024-02-21T14:53:36;13.50;99.90
20102;DHT22;10210;52.284;9.892;2024-02-21T14:56:02;13.50;99.90
20102;DHT22;10210;52.284;9.892;2024-02-21T14:58:28;13.40;99.90
20102;DHT22;10210;52.284;9.892;2024-02-21T15:00:53;13.50;99.90
20102;DHT22;10210;52.284;9.892;2024-02-21T15:03:19;13.50;99.90
20102;DHT22;10210;52.284;9.892;2024-02-21T15:05:46;13.40;99.90
20102;DHT22;10210;52.284;9.892;2024-02-21T15:08:12;13.40;99.90
20102;DHT22;10210;52.284;9.892;2024-02-21T15:10:40;13.40;99.90
20102;DHT22;10210;52.284;9.892;2024-02-21T15:13:06;13.40;99.90
20102;DHT22;10210;52.284;9.892;2024-02-21T15:15:31;13.40;99.90
20102;DHT22;10210;52.284;9.892;2024-02-21T15:18:00;13.40;99.90
20102;DHT22;10210;52.284;9.892;2024-02-21T15:20:25;13.30;99.90
20102;DHT22;10210;52.284;9.892;2024-02-21T15:22:51;13.30;99.90
20102;DHT22;10210;52.284;9.892;2024-02-21T15:25:17;13.30;99.90
20102;DHT22;10210;52.284;9.892;2024-02-21T15:27:43;13.30;99.90
20102;DHT22;10210;52.284;9.892;2024-02-21T15:30:10;13.30;99.90
20102;DHT22;10210;52.284;9.892;2024-02-21T15:32:40;13.30;99.90
20102;DHT22;10210;52.284;9.892;2024-02-21T15:35:09;13.30;99.90